Oxelosund, Sweden
Current Conditions -  °F | °C
As of 6:50 AM on Thursday 18 Dec 2014 (Local Time) from ESKN Reporting Station
Broken Clouds Broken Clouds  
Wind Chill: 26°   Ceiling: 4600
Heat Index: 32°   Visibility: 6mi
Dew Point: 30°   Wind: 6mph
Humidity: 93%   Direction: 180°S
Pressure: 29.44"   Gusts: NA
Location:  58.67°N, 17.1°E
Report Text: ESKN 180550Z 18005KT 9999 BKN046 M00/M01 Q0997 R26/710145
Loading
Personal Weather Stations






























Interactive Weather Map New forecast layout! Learn more

10-Day Weather Forecast

Advertisements
Track Severe Weather on mobile